Time;durP1;ratioP1;P1;durP2;ratioP2;P2;SDS_P1;SDS_P2;PMS_P1;PMS_P2;Temp;Humidity;BMP_temperature;BMP_pressure;BME280_temperature;BME280_humidity;BME280_pressure;Samples;Min_cycle;Max_cycle;Signal;HPM_P1;HPM_P2
2022/06/07 00:01:22;;;;;;;0.95;0.50;;;;;;;13.45;59.01;100203.28;10415598;28;20647;-81
2022/06/07 00:06:25;;;;;;;0.93;0.50;;;;;;;13.50;59.07;100208.25;10419692;28;20049;-81
2022/06/07 00:11:29;;;;;;;1.38;0.60;;;;;;;13.48;59.22;100200.28;10420629;28;20052;-81
2022/06/07 00:16:32;;;;;;;1.58;0.60;;;;;;;13.33;59.81;100200.88;10416931;28;20200;-80
2022/06/07 00:21:35;;;;;;;0.80;0.80;;;;;;;13.28;60.19;100209.44;10432763;28;20492;-80
2022/06/07 00:26:41;;;;;;;2.08;0.80;;;;;;;13.31;60.68;100195.66;10427344;28;20049;-80
2022/06/07 00:31:44;;;;;;;2.03;0.93;;;;;;;13.40;60.38;100191.25;10435534;28;20045;-79
2022/06/07 00:36:47;;;;;;;1.10;0.93;;;;;;;13.41;60.66;100191.09;10421927;28;20104;-81
2022/06/07 00:41:51;;;;;;;1.40;1.30;;;;;;;13.43;60.71;100188.25;10415131;28;20057;-80
2022/06/07 00:46:59;;;;;;;1.40;1.30;;;;;;;13.36;61.22;100189.81;10468911;28;20059;-80
2022/06/07 00:52:02;;;;;;;1.48;1.38;;;;;;;13.28;61.46;100183.31;10435740;28;20065;-81
2022/06/07 00:57:08;;;;;;;1.85;1.27;;;;;;;13.28;61.47;100174.38;10439003;28;20100;-80
2022/06/07 01:02:13;;;;;;;1.90;1.40;;;;;;;13.36;61.44;100173.63;10405730;28;20049;-81
2022/06/07 01:12:48;;;;;;;1.60;1.10;;;;;;;13.58;60.84;100172.44;10425412;28;20157;-81
2022/06/07 01:17:55;;;;;;;1.30;1.20;;;;;;;13.59;60.81;100169.56;10446571;28;20476;-81
2022/06/07 01:23:00;;;;;;;1.30;1.20;;;;;;;13.66;60.55;100159.91;10434101;28;20044;-79
2022/06/07 01:28:04;;;;;;;2.25;1.20;;;;;;;13.71;60.96;100162.13;10420495;28;20072;-81
2022/06/07 01:33:07;;;;;;;1.60;1.50;;;;;;;13.75;60.99;100162.69;10435889;28;20046;-79
2022/06/07 01:38:12;;;;;;;1.75;1.30;;;;;;;13.85;60.96;100166.16;10431908;28;20116;-79
2022/06/07 01:43:15;;;;;;;1.48;1.20;;;;;;;13.99;60.96;100154.00;10438581;28;20059;-81
2022/06/07 01:48:18;;;;;;;1.98;1.52;;;;;;;13.97;61.02;100150.63;10442520;28;20045;-81
2022/06/07 01:53:22;;;;;;;1.80;1.70;;;;;;;14.00;61.52;100153.03;10433545;28;20623;-79
2022/06/07 01:58:25;;;;;;;1.83;1.60;;;;;;;14.02;61.75;100142.91;10428313;28;20057;-79
2022/06/07 02:03:28;;;;;;;1.67;1.40;;;;;;;13.92;62.10;100141.13;10425434;28;20049;-80
2022/06/07 02:08:36;;;;;;;2.00;1.60;;;;;;;13.94;62.50;100132.88;10420265;28;20045;-79
2022/06/07 02:13:43;;;;;;;3.45;2.00;;;;;;;13.85;62.74;100131.06;10409528;28;20049;-79
2022/06/07 02:18:47;;;;;;;2.50;2.20;;;;;;;13.77;62.91;100126.44;10418546;28;20100;-79
2022/06/07 02:24:15;;;;;;;2.50;2.08;;;;;;;13.86;62.93;100120.13;10431774;28;20076;-78
2022/06/07 02:29:21;;;;;;;2.50;2.30;;;;;;;13.89;63.12;100117.13;10438962;28;20458;-79
2022/06/07 02:34:24;;;;;;;3.03;2.63;;;;;;;13.88;63.31;100117.28;10422168;28;20051;-79
2022/06/07 02:39:32;;;;;;;3.85;2.35;;;;;;;13.93;63.07;100105.03;10450608;28;20041;-78
2022/06/07 02:44:35;;;;;;;2.47;2.22;;;;;;;13.98;63.10;100107.25;10435906;28;20056;-76
2022/06/07 02:49:39;;;;;;;3.25;2.33;;;;;;;14.02;63.15;100099.72;10440081;28;20042;-78
2022/06/07 02:54:44;;;;;;;3.80;2.53;;;;;;;13.96;63.09;100095.78;10425706;28;20046;-77
2022/06/07 02:59:48;;;;;;;2.65;2.45;;;;;;;14.01;63.00;100092.59;10431695;28;20049;-79
2022/06/07 03:04:52;;;;;;;2.47;2.10;;;;;;;14.04;63.30;100089.59;10417455;28;20049;-77
2022/06/07 03:09:58;;;;;;;4.05;2.50;;;;;;;14.00;63.29;100086.34;10413493;28;20092;-77
2022/06/07 03:15:02;;;;;;;4.03;2.70;;;;;;;13.87;63.32;100077.78;10396991;28;20526;-77
2022/06/07 03:20:08;;;;;;;3.78;2.30;;;;;;;13.77;63.97;100088.66;10425417;28;20455;-78
2022/06/07 03:25:14;;;;;;;4.07;2.70;;;;;;;13.82;63.86;100086.34;10409114;28;20052;-78
2022/06/07 03:30:18;;;;;;;3.78;2.10;;;;;;;13.82;63.59;100088.19;10433903;28;20045;-77
2022/06/07 03:35:21;;;;;;;5.60;2.10;;;;;;;13.78;63.61;100084.09;10396066;28;20050;-78
2022/06/07 03:45:44;;;;;;;3.78;2.13;;;;;;;13.72;63.21;100082.88;10406826;28;20060;-78
2022/06/07 03:50:51;;;;;;;3.88;2.25;;;;;;;13.62;63.01;100088.31;10443042;28;20095;-77
2022/06/07 03:55:57;;;;;;;1.92;1.80;;;;;;;13.74;63.45;100085.38;10412902;28;20042;-79
2022/06/07 04:01:09;;;;;;;3.28;2.35;;;;;;;13.68;63.57;100084.16;10418524;28;20053;-78
2022/06/07 04:06:20;;;;;;;2.28;2.00;;;;;;;13.84;63.05;100087.03;10402075;28;20049;-79
2022/06/07 04:11:29;;;;;;;3.58;2.75;;;;;;;13.87;63.37;100092.13;10396083;28;20117;-78
2022/06/07 04:16:36;;;;;;;3.90;2.88;;;;;;;13.90;63.84;100091.84;10406101;28;20054;-79
2022/06/07 04:21:50;;;;;;;6.93;3.20;;;;;;;14.00;63.82;100091.75;10431132;28;20721;-78
2022/06/07 04:27:06;;;;;;;5.15;3.70;;;;;;;14.05;63.36;100085.91;10447299;28;20083;-78
2022/06/07 04:32:12;;;;;;;4.75;2.97;;;;;;;13.98;63.30;100082.09;10405028;28;20104;-78
2022/06/07 04:37:19;;;;;;;4.68;3.95;;;;;;;14.09;63.25;100084.56;10401079;28;20046;-80
2022/06/07 04:42:25;;;;;;;4.55;3.60;;;;;;;14.15;62.99;100083.94;10415623;28;20483;-79
2022/06/07 04:47:36;;;;;;;7.67;3.43;;;;;;;14.23;62.54;100088.59;10436627;28;20136;-80
2022/06/07 04:52:41;;;;;;;5.75;3.63;;;;;;;14.16;62.37;100094.59;10439743;28;20041;-77
2022/06/07 04:57:46;;;;;;;10.35;3.42;;;;;;;14.37;62.39;100083.50;10431927;28;20052;-79
2022/06/07 05:02:53;;;;;;;4.03;3.20;;;;;;;14.75;61.19;100080.56;10417814;28;20134;-78
2022/06/07 05:07:56;;;;;;;5.55;3.53;;;;;;;14.62;61.62;100082.84;10398791;28;20056;-77
2022/06/07 05:13:03;;;;;;;5.05;3.17;;;;;;;14.75;61.21;100085.97;10403027;28;20042;-77
2022/06/07 05:18:12;;;;;;;3.47;2.80;;;;;;;14.37;61.83;100088.03;10419425;28;20049;-78
2022/06/07 05:23:18;;;;;;;3.63;3.00;;;;;;;14.26;62.42;100081.03;10431281;28;20083;-78
2022/06/07 05:28:29;;;;;;;3.80;3.13;;;;;;;14.33;61.94;100084.78;10423453;28;20470;-76
2022/06/07 05:33:34;;;;;;;5.90;3.08;;;;;;;14.30;62.06;100082.41;10422660;28;20431;-78
2022/06/07 05:38:37;;;;;;;5.10;3.30;;;;;;;14.56;60.84;100087.03;10425231;28;20073;-77
2022/06/07 05:43:52;;;;;;;3.03;2.67;;;;;;;14.63;60.94;100085.41;10445227;28;20045;-78
2022/06/07 05:49:03;;;;;;;3.67;2.60;;;;;;;14.36;61.41;100092.56;10474397;28;20084;-78
2022/06/07 05:54:45;;;;;;;2.85;2.25;;;;;;;14.46;60.67;100087.13;10424518;28;20052;-79
2022/06/07 05:59:49;;;;;;;7.40;2.85;;;;;;;14.66;60.25;100087.78;10403560;28;20049;-80
2022/06/07 06:04:54;;;;;;;4.85;2.78;;;;;;;14.82;59.72;100089.75;10409973;28;20725;-79
2022/06/07 06:15:26;;;;;;;2.00;1.85;;;;;;;15.17;58.02;100090.63;10409283;28;20457;-80
2022/06/07 06:20:30;;;;;;;4.75;2.70;;;;;;;15.00;58.96;100089.69;10413182;28;20041;-80
2022/06/07 06:25:36;;;;;;;4.07;2.40;;;;;;;15.03;57.30;100083.97;10424604;28;20519;-80
2022/06/07 06:30:45;;;;;;;1.88;1.70;;;;;;;14.87;56.08;100092.00;10426057;28;20034;-80
2022/06/07 06:36:07;;;;;;;0.77;0.65;;;;;;;15.32;55.12;100094.41;10409260;28;20049;-80
2022/06/07 06:41:15;;;;;;;2.13;1.85;;;;;;;15.34;55.25;100092.44;10433492;28;20065;-80
2022/06/07 06:46:23;;;;;;;3.70;2.45;;;;;;;15.44;55.05;100092.28;10409668;28;20052;-80
2022/06/07 06:51:28;;;;;;;6.03;1.85;;;;;;;15.18;56.01;100089.63;10425591;28;20045;-79
2022/06/07 06:56:33;;;;;;;6.63;1.85;;;;;;;15.02;55.80;100093.91;10428222;28;20447;-79
2022/06/07 07:01:45;;;;;;;6.88;1.80;;;;;;;15.20;55.08;100104.69;10420735;28;20079;-78
2022/06/07 07:06:49;;;;;;;1.55;1.45;;;;;;;15.64;54.86;100109.13;10428278;28;20045;-79
2022/06/07 07:11:56;;;;;;;2.28;1.60;;;;;;;15.31;55.24;100094.59;10420908;28;20041;-78
2022/06/07 07:17:09;;;;;;;9.20;2.08;;;;;;;15.98;54.23;100109.03;10431751;28;20056;-79
2022/06/07 07:22:12;;;;;;;3.83;1.65;;;;;;;15.49;54.85;100098.06;10398768;28;20048;-80
2022/06/07 07:27:19;;;;;;;2.83;1.95;;;;;;;16.11;53.54;100105.84;10396382;28;20537;-78
2022/06/07 07:32:24;;;;;;;3.83;2.10;;;;;;;16.04;53.18;100099.41;10412265;28;20041;-77
2022/06/07 07:37:29;;;;;;;1.88;1.60;;;;;;;16.21;53.54;100100.25;10396105;28;20041;-79
2022/06/07 07:42:43;;;;;;;4.50;1.77;;;;;;;15.99;52.59;100094.50;10398152;28;20037;-79
2022/06/07 07:47:54;;;;;;;3.80;1.65;;;;;;;15.96;52.04;100096.69;10416890;28;20116;-79
2022/06/07 07:52:58;;;;;;;2.28;1.50;;;;;;;16.18;51.32;100096.06;10429533;28;20049;-79
2022/06/07 07:58:05;;;;;;;3.92;1.27;;;;;;;15.43;51.83;100088.75;10442505;28;20388;-79
2022/06/07 08:03:10;;;;;;;5.28;1.95;;;;;;;16.37;50.94;100092.19;10439873;28;20136;-77
2022/06/07 08:08:20;;;;;;;4.72;1.42;;;;;;;16.63;50.11;100104.72;10438846;28;20127;-79
2022/06/07 08:13:23;;;;;;;1.90;1.42;;;;;;;16.40;50.22;100091.88;10435695;28;20044;-78
2022/06/07 08:18:27;;;;;;;4.00;1.95;;;;;;;16.71;49.77;100088.44;10447304;28;20397;-80
2022/06/07 08:23:31;;;;;;;4.82;2.17;;;;;;;16.68;50.19;100086.94;10443089;28;20087;-81
2022/06/07 08:28:34;;;;;;;3.67;1.33;;;;;;;16.61;50.15;100101.34;10419061;28;20624;-80
2022/06/07 08:39:00;;;;;;;;;;;;;;;17.31;48.48;100093.41;10423357;28;20749;-79
2022/06/07 08:44:09;;;;;;;2.47;1.08;;;;;;;17.65;47.75;100093.06;10434844;28;19931;-81
2022/06/07 08:49:14;;;;;;;3.35;1.40;;;;;;;18.23;46.71;100098.19;10449802;28;20052;-80
2022/06/07 08:54:24;;;;;;;3.40;1.38;;;;;;;18.56;47.17;100091.44;10452444;28;20048;-79
2022/06/07 08:59:27;;;;;;;2.17;1.75;;;;;;;17.07;50.07;100093.47;10456668;28;20050;-80
2022/06/07 09:04:36;;;;;;;2.60;1.63;;;;;;;17.28;51.93;100091.06;10446074;28;20470;-79
2022/06/07 09:15:04;;;;;;;7.93;1.92;;;;;;;18.41;50.07;100079.69;10443559;28;20044;-81
2022/06/07 09:20:16;;;;;;;3.55;1.98;;;;;;;18.28;49.28;100063.16;10441548;28;20049;-81
2022/06/07 09:25:29;;;;;;;3.22;2.20;;;;;;;18.09;49.27;100068.03;10440914;28;20137;-80
2022/06/07 09:30:36;;;;;;;3.38;3.00;;;;;;;18.83;49.41;100069.31;10447186;28;20472;-80
2022/06/07 09:35:42;;;;;;;4.15;1.90;;;;;;;19.40;46.74;100064.03;10428531;28;20042;-80
2022/06/07 09:40:55;;;;;;;3.75;3.45;;;;;;;18.49;50.46;100057.88;10444469;28;20553;-80
2022/06/07 09:46:02;;;;;;;4.38;3.85;;;;;;;18.62;51.07;100072.69;10457612;28;20049;-80
2022/06/07 09:51:15;;;;;;;5.57;3.75;;;;;;;18.99;49.43;100069.13;10433215;28;20044;-80
2022/06/07 09:56:30;;;;;;;4.70;3.90;;;;;;;19.64;48.40;100060.19;10441985;28;20091;-80
2022/06/07 10:01:40;;;;;;;4.57;3.78;;;;;;;19.54;48.83;100059.59;10429638;28;20049;-80
2022/06/07 10:06:51;;;;;;;4.40;4.00;;;;;;;20.69;47.24;100057.84;10417584;28;20583;-79
2022/06/07 10:12:03;;;;;;;4.97;4.47;;;;;;;20.10;47.11;100059.84;10417726;28;20033;-80
2022/06/07 10:17:26;;;;;;;4.70;3.58;;;;;;;19.45;47.53;100066.22;10418170;28;20060;-80
2022/06/07 10:22:46;;;;;;;3.67;3.33;;;;;;;19.15;48.80;100051.78;10418275;28;20037;-78
2022/06/07 10:27:59;;;;;;;4.95;3.45;;;;;;;19.35;48.50;100061.03;10440358;28;20045;-78
2022/06/07 10:33:33;;;;;;;4.20;3.80;;;;;;;19.74;47.58;100039.94;10437482;28;20041;-80
2022/06/07 10:38:47;;;;;;;4.30;3.72;;;;;;;19.74;46.67;100048.97;10427147;28;20338;-78
2022/06/07 10:43:58;;;;;;;5.93;4.35;;;;;;;19.77;47.88;100062.19;10430180;28;20045;-80
2022/06/07 10:49:13;;;;;;;5.07;3.67;;;;;;;19.93;46.36;100044.78;10451441;28;20041;-80
2022/06/07 10:54:24;;;;;;;5.57;3.92;;;;;;;20.52;44.87;100035.50;10466281;28;20037;-79
2022/06/07 10:59:28;;;;;;;5.85;3.80;;;;;;;20.45;46.26;100045.50;10418361;28;20467;-80
2022/06/07 11:10:06;;;;;;;3.92;3.15;;;;;;;19.96;45.24;100030.75;10433404;28;20104;-81
2022/06/07 11:15:19;;;;;;;4.65;3.40;;;;;;;21.15;44.84;100027.31;10450259;28;20041;-77
2022/06/07 11:20:26;;;;;;;6.55;3.92;;;;;;;20.88;44.12;100012.66;10429110;28;20104;-80
2022/06/07 11:25:34;;;;;;;4.32;3.78;;;;;;;19.64;45.32;100016.59;10429291;28;20047;-81
2022/06/07 11:30:52;;;;;;;6.13;3.97;;;;;;;19.37;46.47;100012.69;10432042;28;20052;-80
2022/06/07 11:36:08;;;;;;;5.97;2.95;;;;;;;19.82;45.95;100026.22;10416572;28;20037;-80
2022/06/07 11:41:41;;;;;;;5.50;3.30;;;;;;;20.70;43.43;100011.25;10415712;28;20484;-80
2022/06/07 11:46:59;;;;;;;4.35;3.40;;;;;;;20.12;45.35;100011.41;10416494;28;20142;-81
2022/06/07 11:52:19;;;;;;;4.45;3.40;;;;;;;19.87;46.20;100023.75;10415880;28;20051;-80
2022/06/07 11:57:29;;;;;;;3.88;3.40;;;;;;;19.25;46.84;100022.38;10424941;28;20053;-81
2022/06/07 12:02:36;;;;;;;5.13;3.35;;;;;;;19.27;46.89;100014.03;10440219;28;20136;-81
2022/06/07 12:07:46;;;;;;;6.07;3.67;;;;;;;20.40;46.48;100017.97;10448115;28;20045;-81
2022/06/07 12:12:54;;;;;;;6.05;3.35;;;;;;;20.93;43.40;100011.00;10452386;28;20088;-80
2022/06/07 12:17:59;;;;;;;5.43;4.30;;;;;;;19.90;45.74;100013.28;10421465;28;20045;-82
2022/06/07 12:23:16;;;;;;;6.65;2.90;;;;;;;19.27;46.69;100012.13;10426424;28;20045;-80
2022/06/07 12:28:23;;;;;;;4.88;3.08;;;;;;;19.16;47.36;100009.91;10433318;28;20045;-81
2022/06/07 12:33:32;;;;;;;6.30;3.20;;;;;;;19.57;46.72;100012.09;10432320;28;20043;-79
2022/06/07 12:38:35;;;;;;;8.25;2.75;;;;;;;20.25;45.43;100007.97;10433830;28;20719;-81
2022/06/07 12:43:47;;;;;;;3.92;2.95;;;;;;;20.62;44.84;100005.94;10445557;28;20475;-81
2022/06/07 12:48:52;;;;;;;3.45;3.15;;;;;;;20.15;45.19;100010.16;10447386;28;20060;-81
2022/06/07 12:54:00;;;;;;;4.20;2.90;;;;;;;20.48;45.78;100007.75;10448289;28;20041;-81
2022/06/07 12:59:10;;;;;;;4.88;3.33;;;;;;;19.29;46.10;100001.91;10446562;28;20072;-80
2022/06/07 13:04:18;;;;;;;5.53;3.35;;;;;;;19.81;46.74;100016.34;10447074;28;20048;-80
2022/06/07 13:09:22;;;;;;;3.85;3.15;;;;;;;18.43;49.77;100017.81;10421567;28;20439;-79
2022/06/07 13:14:27;;;;;;;4.90;4.05;;;;;;;19.24;49.53;100010.63;10443526;28;20049;-80
2022/06/07 13:19:30;;;;;;;5.95;5.13;;;;;;;19.60;51.12;100015.28;10418949;28;20519;-80
2022/06/07 13:24:42;;;;;;;11.73;7.05;;;;;;;21.38;48.99;100005.97;10418109;28;20129;-81
2022/06/07 13:29:46;;;;;;;7.50;6.43;;;;;;;21.36;48.25;100001.75;10418904;28;20065;-80
2022/06/07 13:34:53;;;;;;;8.90;5.78;;;;;;;21.30;49.95;100008.03;10401380;28;20046;-81
2022/06/07 13:40:01;;;;;;;5.13;4.68;;;;;;;21.72;47.50;99997.88;10419084;28;20041;-81
2022/06/07 13:45:20;;;;;;;5.10;4.55;;;;;;;21.76;45.66;99993.72;10418689;28;20041;-81
2022/06/07 13:55:50;;;;;;;5.78;4.40;;;;;;;22.77;43.88;99988.06;10419292;28;20053;-81
2022/06/07 14:00:58;;;;;;;6.07;4.53;;;;;;;23.26;43.22;99985.81;10419364;28;20124;-81
2022/06/07 14:06:03;;;;;;;7.05;3.53;;;;;;;22.96;43.08;99986.31;10449055;28;20041;-80
2022/06/07 14:11:06;;;;;;;6.63;3.38;;;;;;;21.92;43.79;99974.19;10451635;28;20128;-80
2022/06/07 14:16:16;;;;;;;5.57;4.05;;;;;;;22.87;44.20;99973.91;10443906;28;20045;-79
2022/06/07 14:21:19;;;;;;;4.90;3.28;;;;;;;23.95;42.34;99967.72;10419186;28;20072;-80
2022/06/07 14:26:21;;;;;;;5.15;3.47;;;;;;;22.83;42.24;99967.19;10420953;28;20049;-79
2022/06/07 14:31:26;;;;;;;3.97;3.03;;;;;;;22.64;43.31;99977.13;10434526;28;20518;-79
2022/06/07 14:36:29;;;;;;;5.28;4.13;;;;;;;23.59;42.55;99970.03;10422374;28;20108;-81
2022/06/07 14:41:32;;;;;;;6.13;4.72;;;;;;;23.88;42.43;99974.09;10428235;28;20042;-80
2022/06/07 14:46:37;;;;;;;7.68;3.70;;;;;;;23.12;42.43;99971.31;10448798;28;20121;-80
2022/06/07 14:51:42;;;;;;;3.75;3.40;;;;;;;24.13;43.01;99970.53;10435830;28;20051;-80
2022/06/07 14:56:45;;;;;;;6.38;3.50;;;;;;;24.83;40.04;99955.75;10436771;28;20066;-78
2022/06/07 15:01:52;;;;;;;3.22;2.78;;;;;;;23.27;41.81;99957.34;10434070;28;20053;-81
2022/06/07 15:06:56;;;;;;;4.50;3.05;;;;;;;22.67;43.42;99966.59;10441003;28;20051;-79
2022/06/07 15:11:59;;;;;;;3.67;3.38;;;;;;;21.29;46.18;99968.13;10417918;28;20041;-80
2022/06/07 15:17:04;;;;;;;3.83;3.30;;;;;;;20.67;46.88;99968.00;10416049;28;20064;-79
2022/06/07 15:22:10;;;;;;;4.03;2.55;;;;;;;20.57;46.23;99981.19;10432918;28;20084;-79
2022/06/07 15:27:14;;;;;;;2.42;2.22;;;;;;;19.80;46.96;99982.81;10454081;28;20044;-79
2022/06/07 15:32:22;;;;;;;4.47;2.40;;;;;;;19.72;46.78;99979.34;10444532;28;20471;-80
2022/06/07 15:37:25;;;;;;;4.43;2.60;;;;;;;19.37;47.00;99979.16;10431358;28;20060;-81
2022/06/07 15:42:51;;;;;;;2.58;2.30;;;;;;;19.59;47.32;99961.84;10430647;28;20190;-81
2022/06/07 15:48:08;;;;;;;3.53;3.22;;;;;;;19.54;47.43;99972.44;10464182;28;20033;-81
2022/06/07 15:53:11;;;;;;;3.25;2.55;;;;;;;19.85;47.34;99963.97;10477375;28;20041;-81
2022/06/07 16:03:39;;;;;;;6.78;2.17;;;;;;;19.70;49.29;99982.28;10420927;28;20514;-79
2022/06/07 16:08:42;;;;;;;3.40;2.25;;;;;;;20.06;49.12;99970.47;10415152;28;20041;-81
2022/06/07 16:13:47;;;;;;;8.18;2.45;;;;;;;20.26;48.59;99959.72;10415832;28;20515;-81
2022/06/07 16:18:53;;;;;;;5.47;2.05;;;;;;;19.85;49.89;99958.53;10421996;28;20458;-80
2022/06/07 16:23:57;;;;;;;2.10;1.60;;;;;;;20.06;49.26;99965.84;10422460;28;20065;-81
2022/06/07 16:34:22;;;;;;;2.03;1.30;;;;;;;21.04;47.39;99967.81;10422155;28;20041;-81
2022/06/07 16:39:28;;;;;;;2.10;1.40;;;;;;;22.14;44.60;99954.84;10421268;28;20042;-81
2022/06/07 16:44:31;;;;;;;3.92;1.73;;;;;;;22.85;43.35;99949.50;10421724;28;20041;-81
2022/06/07 16:49:37;;;;;;;3.17;1.52;;;;;;;22.84;43.92;99950.53;10421147;28;20052;-81
2022/06/07 16:54:40;;;;;;;2.00;1.30;;;;;;;24.89;40.59;99947.41;10425096;28;20038;-78
2022/06/07 16:59:43;;;;;;;1.73;1.42;;;;;;;23.99;42.07;99956.06;10421745;28;20103;-80
2022/06/07 17:04:47;;;;;;;3.58;1.30;;;;;;;24.90;40.30;99946.38;10421020;28;20054;-80
2022/06/07 17:09:50;;;;;;;2.38;1.88;;;;;;;26.02;38.63;99945.03;10420008;28;20048;-80
2022/06/07 17:14:53;;;;;;;1.20;1.10;;;;;;;26.29;38.34;99948.22;10419668;28;20048;-79
2022/06/07 17:19:57;;;;;;;3.60;1.70;;;;;;;25.86;38.42;99946.56;10419685;28;20050;-80
2022/06/07 17:25:00;;;;;;;3.05;1.42;;;;;;;25.56;39.20;99949.31;10419237;28;20049;-80
2022/06/07 17:30:04;;;;;;;4.32;1.60;;;;;;;25.77;39.09;99957.06;10438305;28;20045;-79
2022/06/07 17:35:15;;;;;;;1.92;1.30;;;;;;;25.81;38.76;99955.53;10419460;28;20412;-80
2022/06/07 17:40:22;;;;;;;2.80;1.33;;;;;;;23.08;43.63;99962.66;10419041;28;20500;-80
2022/06/07 17:45:25;;;;;;;4.20;1.23;;;;;;;22.61;45.22;99966.63;10419501;28;20078;-78
2022/06/07 17:50:32;;;;;;;1.45;1.13;;;;;;;19.95;50.99;99971.84;10418358;28;20050;-79
2022/06/07 17:55:37;;;;;;;3.00;1.45;;;;;;;19.88;51.97;99973.63;10422789;28;20132;-80
2022/06/07 18:00:41;;;;;;;3.40;1.50;;;;;;;19.81;52.20;99983.66;10425098;28;20049;-79
2022/06/07 18:05:46;;;;;;;2.25;1.55;;;;;;;19.39;53.75;99972.50;10532623;22;20094;-77
2022/06/07 18:10:51;;;;;;;1.58;1.48;;;;;;;19.02;54.76;99968.06;10511613;28;20045;-76
2022/06/07 18:15:59;;;;;;;2.28;1.50;;;;;;;19.03;55.25;99953.41;10508900;28;20037;-77
2022/06/07 18:21:04;;;;;;;2.75;1.77;;;;;;;18.93;55.29;99958.31;10521230;28;20118;-77
2022/06/07 18:26:11;;;;;;;1.98;1.88;;;;;;;18.79;55.57;99976.34;10513953;28;20548;-76
2022/06/07 18:31:15;;;;;;;2.63;1.70;;;;;;;18.44;56.88;99973.28;10512787;28;20164;-77
2022/06/07 18:36:20;;;;;;;1.50;1.40;;;;;;;18.51;56.83;99971.53;10533608;28;20063;-77
2022/06/07 18:41:23;;;;;;;1.60;1.50;;;;;;;18.38;57.18;99976.75;10527737;28;20047;-77
2022/06/07 18:46:26;;;;;;;3.22;1.50;;;;;;;18.21;58.00;99981.50;10515403;28;20093;-77
2022/06/07 18:51:31;;;;;;;2.15;2.05;;;;;;;17.89;59.01;99985.31;10516512;28;20127;-75
2022/06/07 18:56:34;;;;;;;2.00;1.77;;;;;;;17.54;60.34;99987.56;10524194;28;20490;-75
2022/06/07 19:01:38;;;;;;;4.95;2.15;;;;;;;17.61;60.45;99985.84;10533077;28;20036;-76
2022/06/07 19:06:42;;;;;;;2.38;2.03;;;;;;;17.73;60.04;99986.25;10533982;28;20059;-77
2022/06/07 19:11:48;;;;;;;1.77;1.67;;;;;;;17.70;60.43;99989.34;10496210;28;20101;-76
2022/06/07 19:16:51;;;;;;;1.83;1.73;;;;;;;17.45;61.80;99996.81;10506855;28;20040;-77
2022/06/07 19:21:56;;;;;;;3.25;1.85;;;;;;;17.72;61.02;100003.59;10510034;28;20051;-77
2022/06/07 19:27:02;;;;;;;2.38;1.60;;;;;;;17.68;61.26;100000.38;10501348;28;20052;-77
2022/06/07 19:32:06;;;;;;;1.98;1.50;;;;;;;17.59;61.44;100012.31;10495493;28;20551;-76
2022/06/07 19:37:10;;;;;;;1.73;1.20;;;;;;;17.58;61.50;100007.94;10504611;28;20441;-76
2022/06/07 19:42:13;;;;;;;1.58;1.48;;;;;;;17.71;61.32;100015.47;10516482;28;20425;-77
2022/06/07 19:47:16;;;;;;;3.10;1.70;;;;;;;17.65;61.47;100019.75;10518977;28;20115;-77
2022/06/07 19:52:20;;;;;;;2.83;1.52;;;;;;;17.52;61.69;100024.06;10533696;28;20056;-77
2022/06/07 19:57:23;;;;;;;2.17;1.40;;;;;;;17.54;61.87;100020.16;10542779;28;20048;-77
2022/06/07 20:02:29;;;;;;;2.10;1.30;;;;;;;17.48;61.88;100027.16;10538409;28;20111;-77
2022/06/07 20:07:33;;;;;;;1.70;1.30;;;;;;;17.25;62.98;100031.66;10502742;28;20045;-77
2022/06/07 20:12:36;;;;;;;1.20;1.17;;;;;;;17.33;62.95;100028.06;10513103;28;20040;-77
2022/06/07 20:17:40;;;;;;;1.58;1.30;;;;;;;17.22;63.53;100022.03;10514330;28;20041;-77
2022/06/07 20:22:45;;;;;;;1.35;1.35;;;;;;;17.27;64.10;100017.94;10506825;28;20135;-77
2022/06/07 20:27:48;;;;;;;2.50;1.67;;;;;;;17.07;64.53;100009.34;10503037;28;20518;-76
2022/06/07 20:32:53;;;;;;;1.52;1.42;;;;;;;17.02;64.94;100002.56;10500827;28;20040;-76
2022/06/07 20:37:59;;;;;;;1.38;1.27;;;;;;;16.95;65.24;100003.44;10512747;28;20506;-76
2022/06/07 20:43:02;;;;;;;2.50;1.55;;;;;;;16.86;65.54;100002.63;10526670;28;20047;-76
2022/06/07 20:48:07;;;;;;;1.83;1.67;;;;;;;16.76;66.09;99996.56;10520091;28;20098;-76
2022/06/07 20:53:12;;;;;;;2.35;1.75;;;;;;;16.73;66.02;100005.03;10501324;28;20743;-77
2022/06/07 20:58:16;;;;;;;3.00;1.90;;;;;;;16.72;66.15;99997.94;10509017;28;20044;-77
2022/06/07 21:03:19;;;;;;;2.63;2.42;;;;;;;16.61;66.49;99999.13;10520228;28;20052;-77
2022/06/07 21:08:24;;;;;;;2.67;2.47;;;;;;;16.52;67.20;100005.59;10533488;28;20104;-77
2022/06/07 21:13:27;;;;;;;2.92;2.63;;;;;;;16.49;67.54;100006.78;10509704;28;20044;-77
2022/06/07 21:18:30;;;;;;;4.80;2.70;;;;;;;16.42;68.00;100003.06;10517502;28;20064;-77
2022/06/07 21:23:38;;;;;;;3.22;2.92;;;;;;;16.40;68.26;100002.41;10514129;28;20154;-76
2022/06/07 21:28:42;;;;;;;4.45;3.58;;;;;;;16.40;68.38;99996.13;10536894;28;20738;-76
2022/06/07 21:33:44;;;;;;;4.93;4.20;;;;;;;16.33;68.79;99995.97;10533189;28;20051;-77
2022/06/07 21:38:49;;;;;;;4.28;3.88;;;;;;;16.28;69.02;100006.47;10528435;28;20040;-77
2022/06/07 21:43:52;;;;;;;5.10;4.35;;;;;;;16.22;69.40;100002.56;10517189;28;20487;-77
2022/06/07 21:48:56;;;;;;;5.32;4.82;;;;;;;16.26;69.57;99994.94;10502733;28;20510;-77
2022/06/07 21:54:00;;;;;;;4.90;4.45;;;;;;;16.28;69.38;99999.19;10510648;28;20046;-77
2022/06/07 21:59:03;;;;;;;5.70;5.20;;;;;;;16.43;69.22;99974.09;10518029;28;20096;-77
2022/06/07 22:04:06;;;;;;;4.43;4.05;;;;;;;16.53;68.52;99983.72;10526508;28;20058;-77
2022/06/07 22:09:11;;;;;;;3.75;3.45;;;;;;;16.54;68.40;99985.44;10533663;28;20093;-77
2022/06/07 22:14:14;;;;;;;5.65;5.20;;;;;;;16.51;68.36;99974.06;10511849;28;20054;-77
2022/06/07 22:19:17;;;;;;;6.90;6.18;;;;;;;16.45;68.80;99972.91;10506344;28;20040;-77
2022/06/07 22:24:22;;;;;;;6.68;6.07;;;;;;;16.24;69.89;99972.59;10514608;28;20070;-77
2022/06/07 22:29:40;;;;;;;6.03;5.53;;;;;;;16.17;70.17;99977.00;10522470;28;20036;-78
2022/06/07 22:34:43;;;;;;;6.68;6.00;;;;;;;16.10;70.79;99983.09;10532347;28;20070;-77
2022/06/07 22:39:48;;;;;;;6.80;5.97;;;;;;;16.08;70.76;99965.31;10535980;28;20073;-75
2022/06/07 22:44:51;;;;;;;7.18;6.50;;;;;;;16.13;70.60;99952.94;10530296;28;20051;-76
2022/06/07 22:49:54;;;;;;;7.45;6.75;;;;;;;16.18;70.24;99955.16;10521731;28;20071;-76
2022/06/07 22:55:01;;;;;;;7.35;6.72;;;;;;;16.19;70.42;99956.84;10494782;28;20519;-76
2022/06/07 23:00:10;;;;;;;7.93;7.22;;;;;;;16.15;70.73;99948.22;10519071;28;20059;-76
2022/06/07 23:05:15;;;;;;;8.07;7.28;;;;;;;16.11;71.11;99954.97;10497570;28;20509;-76
2022/06/07 23:10:20;;;;;;;9.80;7.82;;;;;;;16.10;71.27;99947.88;10527427;28;20048;-76
2022/06/07 23:20:44;;;;;;;10.07;9.07;;;;;;;16.12;71.30;99940.41;10514675;28;20084;-76
2022/06/07 23:25:48;;;;;;;11.35;8.95;;;;;;;16.09;71.70;99938.03;10506694;28;20041;-77
2022/06/07 23:30:51;;;;;;;9.52;8.52;;;;;;;16.08;71.69;99939.06;10493644;28;20041;-76
2022/06/07 23:35:54;;;;;;;11.25;10.05;;;;;;;16.08;71.50;99930.94;10493168;28;20050;-77
2022/06/07 23:40:58;;;;;;;10.57;9.57;;;;;;;16.10;71.80;99930.78;10525421;28;20506;-77
2022/06/07 23:46:01;;;;;;;13.13;10.10;;;;;;;16.08;71.54;99930.09;10517535;28;20044;-76
2022/06/07 23:51:05;;;;;;;11.32;10.23;;;;;;;16.15;71.64;99922.97;10509185;28;20102;-77
2022/06/07 23:56:09;;;;;;;11.43;9.98;;;;;;;16.08;71.87;99922.81;10504800;28;20044;-76
